Map

Track Data

SID SEASON NUMBER BASIN SUBBASIN NAME ISO_TIME NATURE LAT LON WMO_WIND WMO_PRES WMO_AGENCY TRACK_TYPE DIST2LAND LANDFALL IFLAG USA_AGENCY USA_ATCF_ID USA_LAT USA_LON USA_RECORD USA_STATUS USA_WIND USA_PRES USA_SSHS USA_R34_NE USA_R34_SE USA_R34_SW USA_R34_NW USA_R50_NE USA_R50_SE USA_R50_SW USA_R50_NW USA_R64_NE USA_R64_SE USA_R64_SW USA_R64_NW USA_POCI USA_ROCI USA_RMW USA_EYE TOKYO_LAT TOKYO_LON TOKYO_GRADE TOKYO_WIND TOKYO_PRES TOKYO_R50_DIR TOKYO_R50_LONG TOKYO_R50_SHORT TOKYO_R30_DIR TOKYO_R30_LONG TOKYO_R30_SHORT TOKYO_LAND CMA_LAT CMA_LON CMA_CAT CMA_WIND CMA_PRES HKO_LAT HKO_LON HKO_CAT HKO_WIND HKO_PRES NEWDELHI_LAT NEWDELHI_LON NEWDELHI_GRADE NEWDELHI_WIND NEWDELHI_PRES NEWDELHI_CI NEWDELHI_DP NEWDELHI_POCI REUNION_LAT REUNION_LON REUNION_TYPE REUNION_WIND REUNION_PRES REUNION_TNUM REUNION_CI REUNION_RMW REUNION_R34_NE REUNION_R34_SE REUNION_R34_SW REUNION_R34_NW REUNION_R50_NE REUNION_R50_SE REUNION_R50_SW REUNION_R50_NW REUNION_R64_NE REUNION_R64_SE REUNION_R64_SW REUNION_R64_NW BOM_LAT BOM_LON BOM_TYPE BOM_WIND BOM_PRES BOM_TNUM BOM_CI BOM_RMW BOM_R34_NE BOM_R34_SE BOM_R34_SW BOM_R34_NW BOM_R50_NE BOM_R50_SE BOM_R50_SW BOM_R50_NW BOM_R64_NE BOM_R64_SE BOM_R64_SW BOM_R64_NW BOM_ROCI BOM_POCI BOM_EYE BOM_POS_METHOD BOM_PRES_METHOD NADI_LAT NADI_LON NADI_CAT NADI_WIND NADI_PRES WELLINGTON_LAT WELLINGTON_LON WELLINGTON_WIND WELLINGTON_PRES DS824_LAT DS824_LON DS824_STAGE DS824_WIND DS824_PRES TD9636_LAT TD9636_LON TD9636_STAGE TD9636_WIND TD9636_PRES TD9635_LAT TD9635_LON TD9635_WIND TD9635_PRES TD9635_ROCI NEUMANN_LAT NEUMANN_LON NEUMANN_CLASS NEUMANN_WIND NEUMANN_PRES MLC_LAT MLC_LON MLC_CLASS MLC_WIND MLC_PRES USA_GUST BOM_GUST BOM_GUST_PER REUNION_GUST REUNION_GUST_PER USA_SEAHGT USA_SEARAD_NE USA_SEARAD_SE USA_SEARAD_SW USA_SEARAD_NW STORM_SPEED STORM_DIR
1949009S14142 1949 2 SP EA NOT_NAMED 1949-01-08 23:00:00 NR -13.6000 141.850 998 bom main 0 0 ______O___O___ -1 -13.6000 142.000 998 -13.6000 141.700 2 7 135
1949009S14142 1949 2 SP EA NOT_NAMED 1949-01-09 00:00:00 TS -13.6839 141.943 main 0 0 O_____P__OP___ jtwc_sh SH081949 -13.7000 141.800 -1 -13.6689 142.114 -13.7000 142.100 TC 35 998 -13.6746 141.838 2 8 121
1949009S14142 1949 2 SP EA NOT_NAMED 1949-01-09 03:00:00 TS -13.8844 142.337 main 0 0 P_____P__PP___ SH081949 -13.8877 142.262 -1 -13.8749 142.456 -13.8708 142.436 TC -13.8985 142.252 2 9 118
1949009S14142 1949 2 SP EA NOT_NAMED 1949-01-09 06:00:00 TS -14.0899 142.731 main 0 0 O_____P__PP___ jtwc_sh SH081949 -14.1000 142.700 -1 -14.0782 142.803 -14.0417 142.776 TC -14.1228 142.673 2 9 119
1949009S14142 1949 2 SP EA NOT_NAMED 1949-01-09 09:00:00 TS -14.3077 143.117 main 0 0 P_____P__PP___ SH081949 -14.3499 143.100 -1 -14.2772 143.158 -14.2134 143.123 TC -14.3484 143.105 2 9 120
1949009S14142 1949 2 SP EA NOT_NAMED 1949-01-09 11:00:00 TS -14.4549 143.378 main 0 0 P_____P__PO___ SH081949 -14.5197 143.364 -1 -14.4067 143.400 -14.3284 143.361 TC -14.5000 143.400 2 9 120
1949009S14142 1949 2 SP EA NOT_NAMED 1949-01-09 12:00:00 TS -14.5265 143.511 main 0 0 O_____P__PP___ jtwc_sh SH081949 -14.6000 143.500 -1 -14.4703 143.523 -14.3862 143.482 TC -14.5762 143.550 2 9 117
1949009S14142 1949 2 SP EA NOT_NAMED 1949-01-09 15:00:00 TS -14.7244 143.930 main 0 0 P_____P__PP___ SH081949 -14.8000 143.943 -1 -14.6557 143.902 -14.5608 143.855 TC -14.8054 144.008 2 9 116
1949009S14142 1949 2 SP EA NOT_NAMED 1949-01-09 18:00:00 TS -14.9205 144.362 main 0 0 O_____P__PP___ jtwc_sh SH081949 -15.0000 144.400 -1 -14.8318 144.297 -14.7377 144.247 TC -15.0330 144.467 2 9 116
1949009S14142 1949 2 SP EA NOT_NAMED 1949-01-09 21:00:00 TS -15.1340 144.800 main 0 0 P_____P__PP___ SH081949 -15.2500 144.857 -1 -14.9969 144.711 -14.9173 144.661 TC -15.2557 144.915 2 9 117
1949009S14142 1949 2 SP EA NOT_NAMED 1949-01-09 23:00:00 TS -15.2756 145.092 996 bom main 0 0 P_____O__PO___ SH081949 -15.4197 145.156 -1 -15.1000 145.000 996 -15.0387 144.950 TC -15.4000 145.200 2 9 117
1949009S14142 1949 2 SP EA NOT_NAMED 1949-01-10 00:00:00 TS -15.3439 145.235 main 0 0 O_____P__OP___ jtwc_sh SH081949 -15.5000 145.300 -1 -15.1496 145.148 996 -15.1000 145.100 TC 35 996 -15.4697 145.325 2 9 116
1949009S14142 1949 2 SP EA NOT_NAMED 1949-01-10 01:00:00 TS -15.4090 145.377 996 bom main 10 10 P_____O__PP___ SH081949 -15.5723 145.442 -1 -15.2000 145.300 996 -15.1617 145.253 TC -15.5385 145.447 2 9 115
1949009S14142 1949 2 SP EA NOT_NAMED 1949-01-10 03:00:00 TS -15.5361 145.655 main 39 39 P_____P__PP___ SH081949 -15.7074 145.715 -1 -15.3054 145.598 -15.2866 145.568 TC -15.6735 145.681 2 9 115
1949009S14142 1949 2 SP EA NOT_NAMED 1949-01-10 06:00:00 TS -15.7255 146.069 main 78 72 O_____P__PP___ jtwc_sh SH081949 -15.9000 146.100 -1 -15.4764 146.048 -15.4793 146.064 TC -15.8721 146.032 2 9 116
1949009S14142 1949 2 SP EA NOT_NAMED 1949-01-10 09:00:00 TS -15.9225 146.474 main 109 107 P_____P__PP___ SH081949 -16.0997 146.428 -1 -15.6643 146.514 -15.6804 146.588 TC -16.0686 146.413 2 9 116
1949009S14142 1949 2 SP EA NOT_NAMED 1949-01-10 11:00:00 TS -16.0573 146.764 main 138 138 P_____P__PO___ SH081949 -16.2332 146.663 -1 -15.7996 146.839 -15.8204 146.953 TC -16.2000 146.700 2 10 115
1949009S14142 1949 2 SP EA NOT_NAMED 1949-01-10 12:00:00 TS -16.1259 146.920 main 146 146 O_____P__PP___ jtwc_sh SH081949 -16.3000 146.800 -1 -15.8704 147.008 -15.8924 147.139 TC -16.2664 146.852 2 11 113
1949009S14142 1949 2 SP EA NOT_NAMED 1949-01-10 15:00:00 TS -16.3359 147.444 main 178 178 P_____P__PP___ SH081949 -16.4999 147.305 -1 -16.0960 147.547 -16.1179 147.716 TC -16.4656 147.344 2 12 112
1949009S14142 1949 2 SP EA NOT_NAMED 1949-01-10 18:00:00 TS -16.5533 148.033 main 221 221 O_____P__PP___ jtwc_sh SH081949 -16.7000 147.900 -1 -16.3420 148.142 -16.3593 148.319 TC -16.6652 147.902 2 12 111
1949009S14142 1949 2 SP EA NOT_NAMED 1949-01-10 21:00:00 TS -16.7787 148.657 main 284 284 P_____P__PP___ SH081949 -16.8995 148.498 -1 -16.6095 148.809 -16.6192 148.947 TC -16.8657 148.533 2 13 110
1949009S14142 1949 2 SP EA NOT_NAMED 1949-01-10 23:00:00 TS -16.9340 149.116 992 bom main 323 323 P_____O__PO___ SH081949 -17.0330 148.950 -1 -16.8000 149.300 992 4 -16.8039 149.380 TC -17.0000 149.000 2 14 109
1949009S14142 1949 2 SP EA NOT_NAMED 1949-01-11 00:00:00 TS -17.0110 149.364 main 341 339 O_____P__OP___ jtwc_sh SH081949 -17.1000 149.200 -1 -16.8976 149.563 -16.9000 149.600 TC 45 992 -17.0573 149.257 2 16 107
1949009S14142 1949 2 SP EA NOT_NAMED 1949-01-11 02:00:00 TS -17.1671 149.899 bom main 355 355 P_____O__PP___ SH081949 -17.2336 149.771 -1 -17.1000 150.100 -17.0998 150.049 TC -17.1688 149.804 2 16 107
1949009S14142 1949 2 SP EA NOT_NAMED 1949-01-11 03:00:00 TS -17.2458 150.177 main 371 362 P_____P__PP___ SH081949 -17.3002 150.078 -1 -17.2004 150.360 -17.2033 150.277 TC -17.2248 150.091 2 17 107
1949009S14142 1949 2 SP EA NOT_NAMED 1949-01-11 06:00:00 TS -17.4874 151.013 main 389 389 O_____P__PP___ jtwc_sh SH081949 -17.5000 151.000 -1 -17.5056 151.115 -17.5268 150.976 TC -17.4047 150.976 2 16 107
1949009S14142 1949 2 SP EA NOT_NAMED 1949-01-11 09:00:00 TS -17.7326 151.813 main 429 429 P_____P__PP___ SH081949 -17.6772 151.838 -1 -17.8194 151.841 -17.8670 151.696 TC -17.6218 151.851 2 16 109
1949009S14142 1949 2 SP EA NOT_NAMED 1949-01-11 11:00:00 TS -17.9138 152.323 main 455 455 P_____P__PO___ SH081949 -17.8161 152.356 -1 -18.0352 152.316 -18.1015 152.185 TC -17.8000 152.400 2 15 111
1949009S14142 1949 2 SP EA NOT_NAMED 1949-01-11 12:00:00 TS -18.0134 152.565 main 474 474 O_____P__PP___ jtwc_sh SH081949 -17.9000 152.600 -1 -18.1454 152.551 -18.2206 152.433 TC -17.9008 152.640 2 15 116
1949009S14142 1949 2 SP EA NOT_NAMED 1949-01-11 15:00:00 TS -18.3453 153.260 main 522 517 P_____P__PP___ SH081949 -18.2045 153.273 -1 -18.4871 153.256 -18.5842 153.184 TC -18.2460 153.315 2 15 119
1949009S14142 1949 2 SP EA NOT_NAMED 1949-01-11 18:00:00 TS -18.7296 153.933 main 531 529 O_____P__PP___ jtwc_sh SH081949 -18.6000 153.900 -1 -18.8479 153.967 -18.9542 153.948 TC -18.6460 153.947 2 15 122
1949009S14142 1949 2 SP EA NOT_NAMED 1949-01-11 21:00:00 TS -19.1513 154.609 main 540 540 P_____P__PP___ SH081949 -19.0772 154.543 -1 -19.2308 154.697 -19.3273 154.721 TC -19.0882 154.572 2 16 124
1949009S14142 1949 2 SP EA NOT_NAMED 1949-01-11 23:00:00 TS -19.4530 155.061 994 bom main 558 558 P_____O__PO___ SH081949 -19.4253 154.978 -1 -19.5000 155.200 994 -19.5760 155.240 TC -19.4000 155.000 2 16 125
1949009S14142 1949 2 SP EA NOT_NAMED 1949-01-12 00:00:00 TS -19.6011 155.286 main 568 568 O_____P__OP___ jtwc_sh SH081949 -19.6000 155.200 -1 -19.6282 155.468 -19.7000 155.500 TC 40 994 -19.5515 155.222 2 16 125
1949009S14142 1949 2 SP EA NOT_NAMED 1949-01-12 03:00:00 TS -20.0634 155.987 main 594 585 P_____P___P___ SH081949 -20.0996 155.878 -1 -20.0265 156.289 TC -20.0279 155.902 2 17 125
1949009S14142 1949 2 SP EA NOT_NAMED 1949-01-12 06:00:00 TS -20.5448 156.735 main 593 588 O_____P___P___ jtwc_sh SH081949 -20.6000 156.600 -1 -20.4490 157.131 TC -20.5300 156.611 2 17 124
1949009S14142 1949 2 SP EA NOT_NAMED 1949-01-12 09:00:00 TS -21.0374 157.527 main 604 603 P_____P___P___ SH081949 -21.0997 157.378 -1 -20.9009 157.986 TC -21.0491 157.365 2 18 123
1949009S14142 1949 2 SP EA NOT_NAMED 1949-01-12 11:00:00 TS -21.3719 158.077 main 620 606 P_____P___O___ SH081949 -21.4331 157.923 -1 -21.2212 158.561 TC -21.4000 157.900 2 18 123
1949009S14142 1949 2 SP EA NOT_NAMED 1949-01-12 12:00:00 TS -21.5409 158.357 main 596 532 O_____P___P___ jtwc_sh SH081949 -21.6000 158.200 -1 -21.3876 158.849 TC -21.5759 158.179 2 19 122
1949009S14142 1949 2 SP EA NOT_NAMED 1949-01-12 15:00:00 TS -22.0485 159.239 main 532 512 P_____P___P___ SH081949 -22.1009 159.044 -1 -21.9145 159.713 TC -22.1040 159.057 2 20 121
1949009S14142 1949 2 SP EA NOT_NAMED 1949-01-12 16:00:00 TS -22.2158 159.563 bom main 502 472 P_____O___P___ SH081949 -22.2676 159.328 -1 -22.1000 160.000 TC -22.2799 159.361 2 20 121
1949009S14142 1949 2 SP MM NOT_NAMED 1949-01-12 18:00:00 TS -22.5687 160.184 main 469 426 O_____P___P___ jtwc_sh SH081949 -22.6000 159.900 -1 -22.4859 160.572 TC -22.6308 159.985 2 21 121
1949009S14142 1949 2 SP MM NOT_NAMED 1949-01-12 21:00:00 NR -23.1221 161.187 main 418 395 ______P___P___ SH081949 -1 -23.0901 161.428 TC -23.1540 160.947 2 21 122
1949009S14142 1949 2 SP MM NOT_NAMED 1949-01-12 23:00:00 NR -23.5000 161.800 996 bom main 395 ______O___O___ SH081949 -1 -23.5000 162.000 996 TC -23.5000 161.600 2 20 124

Digital Typhoon Data and Search

About IBTrACS Database

This database is a web-friendly format of International Best Track Archive for Climate Stewardship (IBTrACS), a global best track data archive curated by NOAA dating back to 1842.

Updated: 2021-10-21